Aviation Digital Data Service (ADDS)

Output produced by METARs form (1310 UTC 19 January 2019)
found at http://www.aviationweather.gov/metar/data/
 
METAR text: LEPA 191300Z 30007G17KT 9999 SCT035 13/05 Q1014 NOSIG
Conditions at: LEPA (PALMA DE MALLORC, ES) observed 1300 UTC 19 January 2019
Temperature: 13.0°C (55°F)
Dewpoint: 5.0°C (41°F) [RH = 58%]
Pressure (altimeter): 29.94 inches Hg (1014.0 mb)
Winds: from the WNW (300 degrees) at 8 MPH (7 knots; 3.6 m/s)
gusting to 20 MPH (17 knots; 8.7 m/s)
Visibility: 6 or more miles (10+ km)
Ceiling: at least 12,000 feet AGL
Clouds: scattered clouds at 3500 feet AGL
Weather: no significant weather observed at this time

METAR text: LEPA 191230Z 33007KT 300V360 9999 SCT030 13/05 Q1015 NOSIG
Conditions at: LEPA (PALMA DE MALLORC, ES) observed 1230 UTC 19 January 2019
Temperature: 13.0°C (55°F)
Dewpoint: 5.0°C (41°F) [RH = 58%]
Pressure (altimeter): 29.97 inches Hg (1015.0 mb)
Winds: from the NNW (330 degrees) at 8 MPH (7 knots; 3.6 m/s)
Visibility: 6 or more miles (10+ km)
Ceiling: at least 12,000 feet AGL
Clouds: scattered clouds at 3000 feet AGL
Weather: no significant weather observed at this time

METAR text: LEPA 191200Z 31006KT 260V340 9999 SCT030 13/05 Q1015 NOSIG
Conditions at: LEPA (PALMA DE MALLORC, ES) observed 1200 UTC 19 January 2019
Temperature: 13.0°C (55°F)
Dewpoint: 5.0°C (41°F) [RH = 58%]
Pressure (altimeter): 29.97 inches Hg (1015.0 mb)
Winds: from the NW (310 degrees) at 7 MPH (6 knots; 3.1 m/s)
Visibility: 6 or more miles (10+ km)
Ceiling: at least 12,000 feet AGL
Clouds: scattered clouds at 3000 feet AGL
Weather: no significant weather observed at this time

METAR text: LEPA 191130Z 22004KT 160V290 9999 SCT030 13/06 Q1015 NOSIG
Conditions at: LEPA (PALMA DE MALLORC, ES) observed 1130 UTC 19 January 2019
Temperature: 13.0°C (55°F)
Dewpoint: 6.0°C (43°F) [RH = 62%]
Pressure (altimeter): 29.97 inches Hg (1015.0 mb)
Winds: from the SW (220 degrees) at 5 MPH (4 knots; 2.1 m/s)
Visibility: 6 or more miles (10+ km)
Ceiling: at least 12,000 feet AGL
Clouds: scattered clouds at 3000 feet AGL
Weather: no significant weather observed at this time

METAR text: LEPA 191100Z 33001KT 9999 FEW030 13/08 Q1016 NOSIG
Conditions at: LEPA (PALMA DE MALLORC, ES) observed 1100 UTC 19 January 2019
Temperature: 13.0°C (55°F)
Dewpoint: 8.0°C (46°F) [RH = 72%]
Pressure (altimeter): 30.00 inches Hg (1016.0 mb)
Winds: from the NNW (330 degrees) at 1 MPH (1 knots; 0.5 m/s)
Visibility: 6 or more miles (10+ km)
Ceiling: at least 12,000 feet AGL
Clouds: few clouds at 3000 feet AGL
Weather: no significant weather observed at this time

METAR text: LEPA 191030Z VRB02KT 9999 FEW025 12/08 Q1016 NOSIG
Conditions at: LEPA (PALMA DE MALLORC, ES) observed 1030 UTC 19 January 2019
Temperature: 12.0°C (54°F)
Dewpoint: 8.0°C (46°F) [RH = 76%]
Pressure (altimeter): 30.00 inches Hg (1016.0 mb)
Winds: variable direction winds at 2 MPH (2 knots; 1.0 m/s)
Visibility: 6 or more miles (10+ km)
Ceiling: at least 12,000 feet AGL
Clouds: few clouds at 2500 feet AGL
Weather: no significant weather observed at this time

METAR text: LEPA 191000Z VRB02KT 9999 FEW025 10/10 Q1016 NOSIG
Conditions at: LEPA (PALMA DE MALLORC, ES) observed 1000 UTC 19 January 2019
Temperature: 10.0°C (50°F)
Dewpoint: 10.0°C (50°F) [RH = 100%]
Pressure (altimeter): 30.00 inches Hg (1016.0 mb)
Winds: variable direction winds at 2 MPH (2 knots; 1.0 m/s)
Visibility: 6 or more miles (10+ km)
Ceiling: at least 12,000 feet AGL
Clouds: few clouds at 2500 feet AGL
Weather: no significant weather observed at this time

METAR text: LEPA 190930Z VRB02KT 9999 FEW025 10/10 Q1016 NOSIG
Conditions at: LEPA (PALMA DE MALLORC, ES) observed 0930 UTC 19 January 2019
Temperature: 10.0°C (50°F)
Dewpoint: 10.0°C (50°F) [RH = 100%]
Pressure (altimeter): 30.00 inches Hg (1016.0 mb)
Winds: variable direction winds at 2 MPH (2 knots; 1.0 m/s)
Visibility: 6 or more miles (10+ km)
Ceiling: at least 12,000 feet AGL
Clouds: few clouds at 2500 feet AGL
Weather: no significant weather observed at this time

METAR text: LEPA 190900Z 00000KT 9999 FEW025 07/07 Q1015 NOSIG
Conditions at: LEPA (PALMA DE MALLORC, ES) observed 0900 UTC 19 January 2019
Temperature: 7.0°C (45°F)
Dewpoint: 7.0°C (45°F) [RH = 100%]
Pressure (altimeter): 29.97 inches Hg (1015.0 mb)
Winds: calm
Visibility: 6 or more miles (10+ km)
Ceiling: at least 12,000 feet AGL
Clouds: few clouds at 2500 feet AGL
Weather: no significant weather observed at this time

METAR text: LEPA 190830Z VRB02KT 9999 FEW025 05/05 Q1015 NOSIG
Conditions at: LEPA (PALMA DE MALLORC, ES) observed 0830 UTC 19 January 2019
Temperature: 5.0°C (41°F)
Dewpoint: 5.0°C (41°F) [RH = 100%]
Pressure (altimeter): 29.97 inches Hg (1015.0 mb)
Winds: variable direction winds at 2 MPH (2 knots; 1.0 m/s)
Visibility: 6 or more miles (10+ km)
Ceiling: at least 12,000 feet AGL
Clouds: few clouds at 2500 feet AGL
Weather: no significant weather observed at this time

METAR text: LEPA 190800Z 00000KT 9999 FEW020 SCT068 05/05 Q1015 NOSIG
Conditions at: LEPA (PALMA DE MALLORC, ES) observed 0800 UTC 19 January 2019
Temperature: 5.0°C (41°F)
Dewpoint: 5.0°C (41°F) [RH = 100%]
Pressure (altimeter): 29.97 inches Hg (1015.0 mb)
Winds: calm
Visibility: 6 or more miles (10+ km)
Ceiling: at least 12,000 feet AGL
Clouds: few clouds at 2000 feet AGL
scattered clouds at 6800 feet AGL
Weather: no significant weather observed at this time

METAR text: LEPA 190730Z VRB01KT 9999 FEW020 BKN068 06/06 Q1015 NOSIG
Conditions at: LEPA (PALMA DE MALLORC, ES) observed 0730 UTC 19 January 2019
Temperature: 6.0°C (43°F)
Dewpoint: 6.0°C (43°F) [RH = 100%]
Pressure (altimeter): 29.97 inches Hg (1015.0 mb)
Winds: variable direction winds at 1 MPH (1 knots; 0.5 m/s)
Visibility: 6 or more miles (10+ km)
Ceiling: 6800 feet AGL
Clouds: few clouds at 2000 feet AGL
broken clouds at 6800 feet AGL
Weather: no significant weather observed at this time

METAR text: LEPA 190700Z VRB02KT 9999 FEW020 BKN068 05/05 Q1015 NOSIG
Conditions at: LEPA (PALMA DE MALLORC, ES) observed 0700 UTC 19 January 2019
Temperature: 5.0°C (41°F)
Dewpoint: 5.0°C (41°F) [RH = 100%]
Pressure (altimeter): 29.97 inches Hg (1015.0 mb)
Winds: variable direction winds at 2 MPH (2 knots; 1.0 m/s)
Visibility: 6 or more miles (10+ km)
Ceiling: 6800 feet AGL
Clouds: few clouds at 2000 feet AGL
broken clouds at 6800 feet AGL
Weather: no significant weather observed at this time

METAR text: LEPA 190630Z VRB01KT 9999 FEW018 SCT053 05/05 Q1015 NOSIG
Conditions at: LEPA (PALMA DE MALLORC, ES) observed 0630 UTC 19 January 2019
Temperature: 5.0°C (41°F)
Dewpoint: 5.0°C (41°F) [RH = 100%]
Pressure (altimeter): 29.97 inches Hg (1015.0 mb)
Winds: variable direction winds at 1 MPH (1 knots; 0.5 m/s)
Visibility: 6 or more miles (10+ km)
Ceiling: at least 12,000 feet AGL
Clouds: few clouds at 1800 feet AGL
scattered clouds at 5300 feet AGL
Weather: no significant weather observed at this time

METAR text: LEPA 190600Z 11002KT 9999 FEW018 SCT053 05/05 Q1015 NOSIG
Conditions at: LEPA (PALMA DE MALLORC, ES) observed 0600 UTC 19 January 2019
Temperature: 5.0°C (41°F)
Dewpoint: 5.0°C (41°F) [RH = 100%]
Pressure (altimeter): 29.97 inches Hg (1015.0 mb)
Winds: from the ESE (110 degrees) at 2 MPH (2 knots; 1.0 m/s)
Visibility: 6 or more miles (10+ km)
Ceiling: at least 12,000 feet AGL
Clouds: few clouds at 1800 feet AGL
scattered clouds at 5300 feet AGL
Weather: no significant weather observed at this time

METAR text: LEPA 190530Z 11002KT 9999 FEW018 05/05 Q1015 TEMPO FEW030CB
Conditions at: LEPA (PALMA DE MALLORC, ES) observed 0530 UTC 19 January 2019
Temperature: 5.0°C (41°F)
Dewpoint: 5.0°C (41°F) [RH = 100%]
Pressure (altimeter): 29.97 inches Hg (1015.0 mb)
Winds: from the ESE (110 degrees) at 2 MPH (2 knots; 1.0 m/s)
Visibility: 6 or more miles (10+ km)
Ceiling: at least 12,000 feet AGL
Clouds: few clouds at 1800 feet AGL
Weather: no significant weather observed at this time

METAR text: LEPA 190500Z VRB02KT 9999 FEW018 04/04 Q1015 TEMPO FEW030CB
Conditions at: LEPA (PALMA DE MALLORC, ES) observed 0500 UTC 19 January 2019
Temperature: 4.0°C (39°F)
Dewpoint: 4.0°C (39°F) [RH = 100%]
Pressure (altimeter): 29.97 inches Hg (1015.0 mb)
Winds: variable direction winds at 2 MPH (2 knots; 1.0 m/s)
Visibility: 6 or more miles (10+ km)
Ceiling: at least 12,000 feet AGL
Clouds: few clouds at 1800 feet AGL
Weather: no significant weather observed at this time

METAR text: LEPA 190430Z VRB03KT 9999 FEW018 04/04 Q1015 TEMPO FEW030CB
Conditions at: LEPA (PALMA DE MALLORC, ES) observed 0430 UTC 19 January 2019
Temperature: 4.0°C (39°F)
Dewpoint: 4.0°C (39°F) [RH = 100%]
Pressure (altimeter): 29.97 inches Hg (1015.0 mb)
Winds: variable direction winds at 3 MPH (3 knots; 1.5 m/s)
Visibility: 6 or more miles (10+ km)
Ceiling: at least 12,000 feet AGL
Clouds: few clouds at 1800 feet AGL
Weather: no significant weather observed at this time

METAR text: LEPA 190400Z VRB01KT 9999 FEW018 04/04 Q1015 TEMPO FEW030CB
Conditions at: LEPA (PALMA DE MALLORC, ES) observed 0400 UTC 19 January 2019
Temperature: 4.0°C (39°F)
Dewpoint: 4.0°C (39°F) [RH = 100%]
Pressure (altimeter): 29.97 inches Hg (1015.0 mb)
Winds: variable direction winds at 1 MPH (1 knots; 0.5 m/s)
Visibility: 6 or more miles (10+ km)
Ceiling: at least 12,000 feet AGL
Clouds: few clouds at 1800 feet AGL
Weather: no significant weather observed at this time

METAR text: LEPA 190330Z VRB01KT 9999 FEW018 04/04 Q1015 NOSIG
Conditions at: LEPA (PALMA DE MALLORC, ES) observed 0330 UTC 19 January 2019
Temperature: 4.0°C (39°F)
Dewpoint: 4.0°C (39°F) [RH = 100%]
Pressure (altimeter): 29.97 inches Hg (1015.0 mb)
Winds: variable direction winds at 1 MPH (1 knots; 0.5 m/s)
Visibility: 6 or more miles (10+ km)
Ceiling: at least 12,000 feet AGL
Clouds: few clouds at 1800 feet AGL
Weather: no significant weather observed at this time

METAR text: LEPA 190300Z 14003KT 9999 FEW018 04/04 Q1015 NOSIG
Conditions at: LEPA (PALMA DE MALLORC, ES) observed 0300 UTC 19 January 2019
Temperature: 4.0°C (39°F)
Dewpoint: 4.0°C (39°F) [RH = 100%]
Pressure (altimeter): 29.97 inches Hg (1015.0 mb)
Winds: from the SE (140 degrees) at 3 MPH (3 knots; 1.5 m/s)
Visibility: 6 or more miles (10+ km)
Ceiling: at least 12,000 feet AGL
Clouds: few clouds at 1800 feet AGL
Weather: no significant weather observed at this time

METAR text: LEPA 190230Z 00000KT 9999 FEW018 04/04 Q1016 NOSIG
Conditions at: LEPA (PALMA DE MALLORC, ES) observed 0230 UTC 19 January 2019
Temperature: 4.0°C (39°F)
Dewpoint: 4.0°C (39°F) [RH = 100%]
Pressure (altimeter): 30.00 inches Hg (1016.0 mb)
Winds: calm
Visibility: 6 or more miles (10+ km)
Ceiling: at least 12,000 feet AGL
Clouds: few clouds at 1800 feet AGL
Weather: no significant weather observed at this time

METAR text: LEPA 190200Z VRB02KT 9999 FEW018 04/04 Q1016 NOSIG
Conditions at: LEPA (PALMA DE MALLORC, ES) observed 0200 UTC 19 January 2019
Temperature: 4.0°C (39°F)
Dewpoint: 4.0°C (39°F) [RH = 100%]
Pressure (altimeter): 30.00 inches Hg (1016.0 mb)
Winds: variable direction winds at 2 MPH (2 knots; 1.0 m/s)
Visibility: 6 or more miles (10+ km)
Ceiling: at least 12,000 feet AGL
Clouds: few clouds at 1800 feet AGL
Weather: no significant weather observed at this time

METAR text: LEPA 190130Z 07003KT 9999 FEW018 03/03 Q1016 NOSIG
Conditions at: LEPA (PALMA DE MALLORC, ES) observed 0130 UTC 19 January 2019
Temperature: 3.0°C (37°F)
Dewpoint: 3.0°C (37°F) [RH = 100%]
Pressure (altimeter): 30.00 inches Hg (1016.0 mb)
Winds: from the ENE (70 degrees) at 3 MPH (3 knots; 1.5 m/s)
Visibility: 6 or more miles (10+ km)
Ceiling: at least 12,000 feet AGL
Clouds: few clouds at 1800 feet AGL
Weather: no significant weather observed at this time

METAR text: LEPA 190100Z 06004KT 9999 FEW018 03/03 Q1016 NOSIG
Conditions at: LEPA (PALMA DE MALLORC, ES) observed 0100 UTC 19 January 2019
Temperature: 3.0°C (37°F)
Dewpoint: 3.0°C (37°F) [RH = 100%]
Pressure (altimeter): 30.00 inches Hg (1016.0 mb)
Winds: from the ENE (60 degrees) at 5 MPH (4 knots; 2.1 m/s)
Visibility: 6 or more miles (10+ km)
Ceiling: at least 12,000 feet AGL
Clouds: few clouds at 1800 feet AGL
Weather: no significant weather observed at this time

METAR text: LEPA 190030Z 06003KT 9999 FEW018 04/04 Q1016 NOSIG
Conditions at: LEPA (PALMA DE MALLORC, ES) observed 0030 UTC 19 January 2019
Temperature: 4.0°C (39°F)
Dewpoint: 4.0°C (39°F) [RH = 100%]
Pressure (altimeter): 30.00 inches Hg (1016.0 mb)
Winds: from the ENE (60 degrees) at 3 MPH (3 knots; 1.5 m/s)
Visibility: 6 or more miles (10+ km)
Ceiling: at least 12,000 feet AGL
Clouds: few clouds at 1800 feet AGL
Weather: no significant weather observed at this time

METAR text: LEPA 190000Z 00000KT 9999 FEW018 05/05 Q1017 NOSIG
Conditions at: LEPA (PALMA DE MALLORC, ES) observed 0000 UTC 19 January 2019
Temperature: 5.0°C (41°F)
Dewpoint: 5.0°C (41°F) [RH = 100%]
Pressure (altimeter): 30.03 inches Hg (1017.0 mb)
Winds: calm
Visibility: 6 or more miles (10+ km)
Ceiling: at least 12,000 feet AGL
Clouds: few clouds at 1800 feet AGL
Weather: no significant weather observed at this time

METAR text: LEPA 182330Z VRB01KT 9999 FEW018 05/05 Q1017 NOSIG
Conditions at: LEPA (PALMA DE MALLORC, ES) observed 2330 UTC 18 January 2019
Temperature: 5.0°C (41°F)
Dewpoint: 5.0°C (41°F) [RH = 100%]
Pressure (altimeter): 30.03 inches Hg (1017.0 mb)
Winds: variable direction winds at 1 MPH (1 knots; 0.5 m/s)
Visibility: 6 or more miles (10+ km)
Ceiling: at least 12,000 feet AGL
Clouds: few clouds at 1800 feet AGL
Weather: no significant weather observed at this time

METAR text: LEPA 182300Z VRB02KT 9999 FEW018 05/05 Q1017 NOSIG
Conditions at: LEPA (PALMA DE MALLORC, ES) observed 2300 UTC 18 January 2019
Temperature: 5.0°C (41°F)
Dewpoint: 5.0°C (41°F) [RH = 100%]
Pressure (altimeter): 30.03 inches Hg (1017.0 mb)
Winds: variable direction winds at 2 MPH (2 knots; 1.0 m/s)
Visibility: 6 or more miles (10+ km)
Ceiling: at least 12,000 feet AGL
Clouds: few clouds at 1800 feet AGL
Weather: no significant weather observed at this time

METAR text: LEPA 182230Z 05001KT 9999 FEW018 05/05 Q1017 NOSIG
Conditions at: LEPA (PALMA DE MALLORC, ES) observed 2230 UTC 18 January 2019
Temperature: 5.0°C (41°F)
Dewpoint: 5.0°C (41°F) [RH = 100%]
Pressure (altimeter): 30.03 inches Hg (1017.0 mb)
Winds: from the NE (50 degrees) at 1 MPH (1 knots; 0.5 m/s)
Visibility: 6 or more miles (10+ km)
Ceiling: at least 12,000 feet AGL
Clouds: few clouds at 1800 feet AGL
Weather: no significant weather observed at this time

METAR text: LEPA 182200Z 01002KT 9999 FEW018 05/05 Q1017 NOSIG
Conditions at: LEPA (PALMA DE MALLORC, ES) observed 2200 UTC 18 January 2019
Temperature: 5.0°C (41°F)
Dewpoint: 5.0°C (41°F) [RH = 100%]
Pressure (altimeter): 30.03 inches Hg (1017.0 mb)
Winds: from the N (10 degrees) at 2 MPH (2 knots; 1.0 m/s)
Visibility: 6 or more miles (10+ km)
Ceiling: at least 12,000 feet AGL
Clouds: few clouds at 1800 feet AGL
Weather: no significant weather observed at this time

METAR text: LEPA 182130Z VRB01KT 9999 FEW018 06/06 Q1017 NOSIG
Conditions at: LEPA (PALMA DE MALLORC, ES) observed 2130 UTC 18 January 2019
Temperature: 6.0°C (43°F)
Dewpoint: 6.0°C (43°F) [RH = 100%]
Pressure (altimeter): 30.03 inches Hg (1017.0 mb)
Winds: variable direction winds at 1 MPH (1 knots; 0.5 m/s)
Visibility: 6 or more miles (10+ km)
Ceiling: at least 12,000 feet AGL
Clouds: few clouds at 1800 feet AGL
Weather: no significant weather observed at this time

METAR text: LEPA 182100Z 11002KT 9999 FEW018 06/06 Q1017 NOSIG
Conditions at: LEPA (PALMA DE MALLORC, ES) observed 2100 UTC 18 January 2019
Temperature: 6.0°C (43°F)
Dewpoint: 6.0°C (43°F) [RH = 100%]
Pressure (altimeter): 30.03 inches Hg (1017.0 mb)
Winds: from the ESE (110 degrees) at 2 MPH (2 knots; 1.0 m/s)
Visibility: 6 or more miles (10+ km)
Ceiling: at least 12,000 feet AGL
Clouds: few clouds at 1800 feet AGL
Weather: no significant weather observed at this time

METAR text: LEPA 182030Z 36003KT 9999 FEW018 07/07 Q1017 NOSIG
Conditions at: LEPA (PALMA DE MALLORC, ES) observed 2030 UTC 18 January 2019
Temperature: 7.0°C (45°F)
Dewpoint: 7.0°C (45°F) [RH = 100%]
Pressure (altimeter): 30.03 inches Hg (1017.0 mb)
Winds: from the N (360 degrees) at 3 MPH (3 knots; 1.5 m/s)
Visibility: 6 or more miles (10+ km)
Ceiling: at least 12,000 feet AGL
Clouds: few clouds at 1800 feet AGL
Weather: no significant weather observed at this time

METAR text: LEPA 182000Z 33003KT 9999 FEW018 07/07 Q1017 NOSIG
Conditions at: LEPA (PALMA DE MALLORC, ES) observed 2000 UTC 18 January 2019
Temperature: 7.0°C (45°F)
Dewpoint: 7.0°C (45°F) [RH = 100%]
Pressure (altimeter): 30.03 inches Hg (1017.0 mb)
Winds: from the NNW (330 degrees) at 3 MPH (3 knots; 1.5 m/s)
Visibility: 6 or more miles (10+ km)
Ceiling: at least 12,000 feet AGL
Clouds: few clouds at 1800 feet AGL
Weather: no significant weather observed at this time

METAR text: LEPA 181930Z 02003KT 340V050 9999 FEW018 SCT034 07/07 Q1017 NOSIG
Conditions at: LEPA (PALMA DE MALLORC, ES) observed 1930 UTC 18 January 2019
Temperature: 7.0°C (45°F)
Dewpoint: 7.0°C (45°F) [RH = 100%]
Pressure (altimeter): 30.03 inches Hg (1017.0 mb)
Winds: from the NNE (20 degrees) at 3 MPH (3 knots; 1.5 m/s)
Visibility: 6 or more miles (10+ km)
Ceiling: at least 12,000 feet AGL
Clouds: few clouds at 1800 feet AGL
scattered clouds at 3400 feet AGL
Weather: no significant weather observed at this time

METAR text: LEPA 181900Z 10003KT 050V120 9999 FEW018 SCT034 08/08 Q1017 NOSIG
Conditions at: LEPA (PALMA DE MALLORC, ES) observed 1900 UTC 18 January 2019
Temperature: 8.0°C (46°F)
Dewpoint: 8.0°C (46°F) [RH = 100%]
Pressure (altimeter): 30.03 inches Hg (1017.0 mb)
Winds: from the E (100 degrees) at 3 MPH (3 knots; 1.5 m/s)
Visibility: 6 or more miles (10+ km)
Ceiling: at least 12,000 feet AGL
Clouds: few clouds at 1800 feet AGL
scattered clouds at 3400 feet AGL
Weather: no significant weather observed at this time

METAR text: LEPA 181830Z 08004KT 9999 FEW018 SCT026 08/08 Q1017 NOSIG
Conditions at: LEPA (PALMA DE MALLORC, ES) observed 1830 UTC 18 January 2019
Temperature: 8.0°C (46°F)
Dewpoint: 8.0°C (46°F) [RH = 100%]
Pressure (altimeter): 30.03 inches Hg (1017.0 mb)
Winds: from the E (80 degrees) at 5 MPH (4 knots; 2.1 m/s)
Visibility: 6 or more miles (10+ km)
Ceiling: at least 12,000 feet AGL
Clouds: few clouds at 1800 feet AGL
scattered clouds at 2600 feet AGL
Weather: no significant weather observed at this time

METAR text: LEPA 181800Z 04004KT 010V070 9999 FEW018 SCT042 09/09 Q1017 NOSIG
Conditions at: LEPA (PALMA DE MALLORC, ES) observed 1800 UTC 18 January 2019
Temperature: 9.0°C (48°F)
Dewpoint: 9.0°C (48°F) [RH = 100%]
Pressure (altimeter): 30.03 inches Hg (1017.0 mb)
Winds: from the NE (40 degrees) at 5 MPH (4 knots; 2.1 m/s)
Visibility: 6 or more miles (10+ km)
Ceiling: at least 12,000 feet AGL
Clouds: few clouds at 1800 feet AGL
scattered clouds at 4200 feet AGL
Weather: no significant weather observed at this time

METAR text: LEPA 181730Z 07003KT 9999 FEW018 BKN044 09/09 Q1017 NOSIG
Conditions at: LEPA (PALMA DE MALLORC, ES) observed 1730 UTC 18 January 2019
Temperature: 9.0°C (48°F)
Dewpoint: 9.0°C (48°F) [RH = 100%]
Pressure (altimeter): 30.03 inches Hg (1017.0 mb)
Winds: from the ENE (70 degrees) at 3 MPH (3 knots; 1.5 m/s)
Visibility: 6 or more miles (10+ km)
Ceiling: 4400 feet AGL
Clouds: few clouds at 1800 feet AGL
broken clouds at 4400 feet AGL
Weather: no significant weather observed at this time

METAR text: LEPA 181700Z VRB01KT 9999 FEW018 BKN040 09/09 Q1017 NOSIG
Conditions at: LEPA (PALMA DE MALLORC, ES) observed 1700 UTC 18 January 2019
Temperature: 9.0°C (48°F)
Dewpoint: 9.0°C (48°F) [RH = 100%]
Pressure (altimeter): 30.03 inches Hg (1017.0 mb)
Winds: variable direction winds at 1 MPH (1 knots; 0.5 m/s)
Visibility: 6 or more miles (10+ km)
Ceiling: 4000 feet AGL
Clouds: few clouds at 1800 feet AGL
broken clouds at 4000 feet AGL
Weather: no significant weather observed at this time

METAR text: LEPA 181630Z VRB03KT 9999 -RA FEW018 BKN040 10/10 Q1017 NOSIG
Conditions at: LEPA (PALMA DE MALLORC, ES) observed 1630 UTC 18 January 2019
Temperature: 10.0°C (50°F)
Dewpoint: 10.0°C (50°F) [RH = 100%]
Pressure (altimeter): 30.03 inches Hg (1017.0 mb)
Winds: variable direction winds at 3 MPH (3 knots; 1.5 m/s)
Visibility: 6 or more miles (10+ km)
Ceiling: 4000 feet AGL
Clouds: few clouds at 1800 feet AGL
broken clouds at 4000 feet AGL
Weather: -RA  (light rain)

METAR text: LEPA 181600Z 36004KT 9999 -RA FEW018 BKN040 10/09 Q1017 NOSIG
Conditions at: LEPA (PALMA DE MALLORC, ES) observed 1600 UTC 18 January 2019
Temperature: 10.0°C (50°F)
Dewpoint: 9.0°C (48°F) [RH = 93%]
Pressure (altimeter): 30.03 inches Hg (1017.0 mb)
Winds: from the N (360 degrees) at 5 MPH (4 knots; 2.1 m/s)
Visibility: 6 or more miles (10+ km)
Ceiling: 4000 feet AGL
Clouds: few clouds at 1800 feet AGL
broken clouds at 4000 feet AGL
Weather: -RA  (light rain)

METAR text: LEPA 181530Z 04003KT 330V070 9999 FEW018 BKN040 11/09 Q1017 NOSIG
Conditions at: LEPA (PALMA DE MALLORC, ES) observed 1530 UTC 18 January 2019
Temperature: 11.0°C (52°F)
Dewpoint: 9.0°C (48°F) [RH = 87%]
Pressure (altimeter): 30.03 inches Hg (1017.0 mb)
Winds: from the NE (40 degrees) at 3 MPH (3 knots; 1.5 m/s)
Visibility: 6 or more miles (10+ km)
Ceiling: 4000 feet AGL
Clouds: few clouds at 1800 feet AGL
broken clouds at 4000 feet AGL
Weather: no significant weather observed at this time

METAR text: LEPA 181500Z 05006KT 9999 FEW018 BKN042 11/08 Q1017 NOSIG
Conditions at: LEPA (PALMA DE MALLORC, ES) observed 1500 UTC 18 January 2019
Temperature: 11.0°C (52°F)
Dewpoint: 8.0°C (46°F) [RH = 82%]
Pressure (altimeter): 30.03 inches Hg (1017.0 mb)
Winds: from the NE (50 degrees) at 7 MPH (6 knots; 3.1 m/s)
Visibility: 6 or more miles (10+ km)
Ceiling: 4200 feet AGL
Clouds: few clouds at 1800 feet AGL
broken clouds at 4200 feet AGL
Weather: no significant weather observed at this time

METAR text: LEPA 181430Z 05007KT 020V090 9999 FEW018 BKN038 11/08 Q1017 NOSIG
Conditions at: LEPA (PALMA DE MALLORC, ES) observed 1430 UTC 18 January 2019
Temperature: 11.0°C (52°F)
Dewpoint: 8.0°C (46°F) [RH = 82%]
Pressure (altimeter): 30.03 inches Hg (1017.0 mb)
Winds: from the NE (50 degrees) at 8 MPH (7 knots; 3.6 m/s)
Visibility: 6 or more miles (10+ km)
Ceiling: 3800 feet AGL
Clouds: few clouds at 1800 feet AGL
broken clouds at 3800 feet AGL
Weather: no significant weather observed at this time

METAR text: LEPA 181400Z 04006KT 9999 FEW018 BKN038 11/08 Q1017 NOSIG
Conditions at: LEPA (PALMA DE MALLORC, ES) observed 1400 UTC 18 January 2019
Temperature: 11.0°C (52°F)
Dewpoint: 8.0°C (46°F) [RH = 82%]
Pressure (altimeter): 30.03 inches Hg (1017.0 mb)
Winds: from the NE (40 degrees) at 7 MPH (6 knots; 3.1 m/s)
Visibility: 6 or more miles (10+ km)
Ceiling: 3800 feet AGL
Clouds: few clouds at 1800 feet AGL
broken clouds at 3800 feet AGL
Weather: no significant weather observed at this time

METAR text: LEPA 181330Z 06007KT 9999 FEW018 BKN040 12/09 Q1017 NOSIG
Conditions at: LEPA (PALMA DE MALLORC, ES) observed 1330 UTC 18 January 2019
Temperature: 12.0°C (54°F)
Dewpoint: 9.0°C (48°F) [RH = 82%]
Pressure (altimeter): 30.03 inches Hg (1017.0 mb)
Winds: from the ENE (60 degrees) at 8 MPH (7 knots; 3.6 m/s)
Visibility: 6 or more miles (10+ km)
Ceiling: 4000 feet AGL
Clouds: few clouds at 1800 feet AGL
broken clouds at 4000 feet AGL
Weather: no significant weather observed at this time

METAR text: LEPA 181300Z 05005KT 020V080 9999 FEW018 BKN044 12/08 Q1017 NOSIG
Conditions at: LEPA (PALMA DE MALLORC, ES) observed 1300 UTC 18 January 2019
Temperature: 12.0°C (54°F)
Dewpoint: 8.0°C (46°F) [RH = 76%]
Pressure (altimeter): 30.03 inches Hg (1017.0 mb)
Winds: from the NE (50 degrees) at 6 MPH (5 knots; 2.6 m/s)
Visibility: 6 or more miles (10+ km)
Ceiling: 4400 feet AGL
Clouds: few clouds at 1800 feet AGL
broken clouds at 4400 feet AGL
Weather: no significant weather observed at this time

METAR text: LEPA 181230Z 04005KT 360V070 9999 FEW020 BKN048 12/08 Q1017 NOSIG
Conditions at: LEPA (PALMA DE MALLORC, ES) observed 1230 UTC 18 January 2019
Temperature: 12.0°C (54°F)
Dewpoint: 8.0°C (46°F) [RH = 76%]
Pressure (altimeter): 30.03 inches Hg (1017.0 mb)
Winds: from the NE (40 degrees) at 6 MPH (5 knots; 2.6 m/s)
Visibility: 6 or more miles (10+ km)
Ceiling: 4800 feet AGL
Clouds: few clouds at 2000 feet AGL
broken clouds at 4800 feet AGL
Weather: no significant weather observed at this time

METAR text: LEPA 181200Z 04006KT 9999 FEW020 BKN050 12/08 Q1018 NOSIG
Conditions at: LEPA (PALMA DE MALLORC, ES) observed 1200 UTC 18 January 2019
Temperature: 12.0°C (54°F)
Dewpoint: 8.0°C (46°F) [RH = 76%]
Pressure (altimeter): 30.06 inches Hg (1018.0 mb)
Winds: from the NE (40 degrees) at 7 MPH (6 knots; 3.1 m/s)
Visibility: 6 or more miles (10+ km)
Ceiling: 5000 feet AGL
Clouds: few clouds at 2000 feet AGL
broken clouds at 5000 feet AGL
Weather: no significant weather observed at this time

METAR text: LEPA 181130Z 06005KT 020V100 9999 FEW020 BKN052 12/08 Q1018 NOSIG
Conditions at: LEPA (PALMA DE MALLORC, ES) observed 1130 UTC 18 January 2019
Temperature: 12.0°C (54°F)
Dewpoint: 8.0°C (46°F) [RH = 76%]
Pressure (altimeter): 30.06 inches Hg (1018.0 mb)
Winds: from the ENE (60 degrees) at 6 MPH (5 knots; 2.6 m/s)
Visibility: 6 or more miles (10+ km)
Ceiling: 5200 feet AGL
Clouds: few clouds at 2000 feet AGL
broken clouds at 5200 feet AGL
Weather: no significant weather observed at this time

METAR text: LEPA 181100Z 07005KT 040V110 9999 FEW020 SCT060 12/08 Q1018 NOSIG
Conditions at: LEPA (PALMA DE MALLORC, ES) observed 1100 UTC 18 January 2019
Temperature: 12.0°C (54°F)
Dewpoint: 8.0°C (46°F) [RH = 76%]
Pressure (altimeter): 30.06 inches Hg (1018.0 mb)
Winds: from the ENE (70 degrees) at 6 MPH (5 knots; 2.6 m/s)
Visibility: 6 or more miles (10+ km)
Ceiling: at least 12,000 feet AGL
Clouds: few clouds at 2000 feet AGL
scattered clouds at 6000 feet AGL
Weather: no significant weather observed at this time

METAR text: LEPA 181030Z 06006KT 9999 FEW020 SCT060 11/08 Q1019 NOSIG
Conditions at: LEPA (PALMA DE MALLORC, ES) observed 1030 UTC 18 January 2019
Temperature: 11.0°C (52°F)
Dewpoint: 8.0°C (46°F) [RH = 82%]
Pressure (altimeter): 30.09 inches Hg (1019.0 mb)
Winds: from the ENE (60 degrees) at 7 MPH (6 knots; 3.1 m/s)
Visibility: 6 or more miles (10+ km)
Ceiling: at least 12,000 feet AGL
Clouds: few clouds at 2000 feet AGL
scattered clouds at 6000 feet AGL
Weather: no significant weather observed at this time

METAR text: LEPA 181000Z 06008KT 9999 FEW020 BKN060 11/08 Q1018 NOSIG
Conditions at: LEPA (PALMA DE MALLORC, ES) observed 1000 UTC 18 January 2019
Temperature: 11.0°C (52°F)
Dewpoint: 8.0°C (46°F) [RH = 82%]
Pressure (altimeter): 30.06 inches Hg (1018.0 mb)
Winds: from the ENE (60 degrees) at 9 MPH (8 knots; 4.1 m/s)
Visibility: 6 or more miles (10+ km)
Ceiling: 6000 feet AGL
Clouds: few clouds at 2000 feet AGL
broken clouds at 6000 feet AGL
Weather: no significant weather observed at this time

METAR text: LEPA 180930Z 05009KT 9999 FEW024 BKN060 10/09 Q1018 NOSIG
Conditions at: LEPA (PALMA DE MALLORC, ES) observed 0930 UTC 18 January 2019
Temperature: 10.0°C (50°F)
Dewpoint: 9.0°C (48°F) [RH = 93%]
Pressure (altimeter): 30.06 inches Hg (1018.0 mb)
Winds: from the NE (50 degrees) at 10 MPH (9 knots; 4.6 m/s)
Visibility: 6 or more miles (10+ km)
Ceiling: 6000 feet AGL
Clouds: few clouds at 2400 feet AGL
broken clouds at 6000 feet AGL
Weather: no significant weather observed at this time

METAR text: LEPA 180900Z 05009KT 9999 FEW024 BKN058 10/08 Q1018 NOSIG
Conditions at: LEPA (PALMA DE MALLORC, ES) observed 0900 UTC 18 January 2019
Temperature: 10.0°C (50°F)
Dewpoint: 8.0°C (46°F) [RH = 87%]
Pressure (altimeter): 30.06 inches Hg (1018.0 mb)
Winds: from the NE (50 degrees) at 10 MPH (9 knots; 4.6 m/s)
Visibility: 6 or more miles (10+ km)
Ceiling: 5800 feet AGL
Clouds: few clouds at 2400 feet AGL
broken clouds at 5800 feet AGL
Weather: no significant weather observed at this time

METAR text: LEPA 180830Z 05007KT 9999 FEW024 BKN058 10/09 Q1018 NOSIG
Conditions at: LEPA (PALMA DE MALLORC, ES) observed 0830 UTC 18 January 2019
Temperature: 10.0°C (50°F)
Dewpoint: 9.0°C (48°F) [RH = 93%]
Pressure (altimeter): 30.06 inches Hg (1018.0 mb)
Winds: from the NE (50 degrees) at 8 MPH (7 knots; 3.6 m/s)
Visibility: 6 or more miles (10+ km)
Ceiling: 5800 feet AGL
Clouds: few clouds at 2400 feet AGL
broken clouds at 5800 feet AGL
Weather: no significant weather observed at this time

METAR text: LEPA 180800Z 05008KT 9999 FEW024 BKN058 10/09 Q1018 NOSIG
Conditions at: LEPA (PALMA DE MALLORC, ES) observed 0800 UTC 18 January 2019
Temperature: 10.0°C (50°F)
Dewpoint: 9.0°C (48°F) [RH = 93%]
Pressure (altimeter): 30.06 inches Hg (1018.0 mb)
Winds: from the NE (50 degrees) at 9 MPH (8 knots; 4.1 m/s)
Visibility: 6 or more miles (10+ km)
Ceiling: 5800 feet AGL
Clouds: few clouds at 2400 feet AGL
broken clouds at 5800 feet AGL
Weather: no significant weather observed at this time

METAR text: LEPA 180730Z 05009KT 9999 FEW024 BKN058 10/09 Q1018 NOSIG
Conditions at: LEPA (PALMA DE MALLORC, ES) observed 0730 UTC 18 January 2019
Temperature: 10.0°C (50°F)
Dewpoint: 9.0°C (48°F) [RH = 93%]
Pressure (altimeter): 30.06 inches Hg (1018.0 mb)
Winds: from the NE (50 degrees) at 10 MPH (9 knots; 4.6 m/s)
Visibility: 6 or more miles (10+ km)
Ceiling: 5800 feet AGL
Clouds: few clouds at 2400 feet AGL
broken clouds at 5800 feet AGL
Weather: no significant weather observed at this time

METAR text: LEPA 180700Z 05010KT 9999 FEW024 BKN058 10/09 Q1017 NOSIG
Conditions at: LEPA (PALMA DE MALLORC, ES) observed 0700 UTC 18 January 2019
Temperature: 10.0°C (50°F)
Dewpoint: 9.0°C (48°F) [RH = 93%]
Pressure (altimeter): 30.03 inches Hg (1017.0 mb)
Winds: from the NE (50 degrees) at 12 MPH (10 knots; 5.1 m/s)
Visibility: 6 or more miles (10+ km)
Ceiling: 5800 feet AGL
Clouds: few clouds at 2400 feet AGL
broken clouds at 5800 feet AGL
Weather: no significant weather observed at this time

METAR text: LEPA 180630Z 05009KT 9999 FEW018 BKN058 10/09 Q1017 TEMPO SHRA FEW020CB
Conditions at: LEPA (PALMA DE MALLORC, ES) observed 0630 UTC 18 January 2019
Temperature: 10.0°C (50°F)
Dewpoint: 9.0°C (48°F) [RH = 93%]
Pressure (altimeter): 30.03 inches Hg (1017.0 mb)
Winds: from the NE (50 degrees) at 10 MPH (9 knots; 4.6 m/s)
Visibility: 6 or more miles (10+ km)
Ceiling: 5800 feet AGL
Clouds: few clouds at 1800 feet AGL
broken clouds at 5800 feet AGL
Weather: no significant weather observed at this time

METAR text: LEPA 180600Z 05008KT 020V080 9999 FEW018 BKN058 10/09 Q1017 TEMPO SHRA FEW020CB
Conditions at: LEPA (PALMA DE MALLORC, ES) observed 0600 UTC 18 January 2019
Temperature: 10.0°C (50°F)
Dewpoint: 9.0°C (48°F) [RH = 93%]
Pressure (altimeter): 30.03 inches Hg (1017.0 mb)
Winds: from the NE (50 degrees) at 9 MPH (8 knots; 4.1 m/s)
Visibility: 6 or more miles (10+ km)
Ceiling: 5800 feet AGL
Clouds: few clouds at 1800 feet AGL
broken clouds at 5800 feet AGL
Weather: no significant weather observed at this time

METAR text: LEPA 180530Z 06007KT 9999 FEW018 BKN056 10/09 Q1017 TEMPO SHRA FEW020CB
Conditions at: LEPA (PALMA DE MALLORC, ES) observed 0530 UTC 18 January 2019
Temperature: 10.0°C (50°F)
Dewpoint: 9.0°C (48°F) [RH = 93%]
Pressure (altimeter): 30.03 inches Hg (1017.0 mb)
Winds: from the ENE (60 degrees) at 8 MPH (7 knots; 3.6 m/s)
Visibility: 6 or more miles (10+ km)
Ceiling: 5600 feet AGL
Clouds: few clouds at 1800 feet AGL
broken clouds at 5600 feet AGL
Weather: no significant weather observed at this time

METAR text: LEPA 180500Z 05006KT 9999 FEW018 BKN056 10/09 Q1017 TEMPO SHRA FEW020CB
Conditions at: LEPA (PALMA DE MALLORC, ES) observed 0500 UTC 18 January 2019
Temperature: 10.0°C (50°F)
Dewpoint: 9.0°C (48°F) [RH = 93%]
Pressure (altimeter): 30.03 inches Hg (1017.0 mb)
Winds: from the NE (50 degrees) at 7 MPH (6 knots; 3.1 m/s)
Visibility: 6 or more miles (10+ km)
Ceiling: 5600 feet AGL
Clouds: few clouds at 1800 feet AGL
broken clouds at 5600 feet AGL
Weather: no significant weather observed at this time

METAR text: LEPA 180430Z 06008KT 9999 FEW018 BKN056 10/09 Q1017 TEMPO SHRA FEW020CB
Conditions at: LEPA (PALMA DE MALLORC, ES) observed 0430 UTC 18 January 2019
Temperature: 10.0°C (50°F)
Dewpoint: 9.0°C (48°F) [RH = 93%]
Pressure (altimeter): 30.03 inches Hg (1017.0 mb)
Winds: from the ENE (60 degrees) at 9 MPH (8 knots; 4.1 m/s)
Visibility: 6 or more miles (10+ km)
Ceiling: 5600 feet AGL
Clouds: few clouds at 1800 feet AGL
broken clouds at 5600 feet AGL
Weather: no significant weather observed at this time

METAR text: LEPA 180400Z 06006KT 9999 FEW018 BKN056 10/10 Q1017 TEMPO SHRA FEW020CB
Conditions at: LEPA (PALMA DE MALLORC, ES) observed 0400 UTC 18 January 2019
Temperature: 10.0°C (50°F)
Dewpoint: 10.0°C (50°F) [RH = 100%]
Pressure (altimeter): 30.03 inches Hg (1017.0 mb)
Winds: from the ENE (60 degrees) at 7 MPH (6 knots; 3.1 m/s)
Visibility: 6 or more miles (10+ km)
Ceiling: 5600 feet AGL
Clouds: few clouds at 1800 feet AGL
broken clouds at 5600 feet AGL
Weather: no significant weather observed at this time

METAR text: LEPA 180330Z 07007KT 9999 FEW018 BKN056 10/10 Q1017 TEMPO SHRA FEW020CB
Conditions at: LEPA (PALMA DE MALLORC, ES) observed 0330 UTC 18 January 2019
Temperature: 10.0°C (50°F)
Dewpoint: 10.0°C (50°F) [RH = 100%]
Pressure (altimeter): 30.03 inches Hg (1017.0 mb)
Winds: from the ENE (70 degrees) at 8 MPH (7 knots; 3.6 m/s)
Visibility: 6 or more miles (10+ km)
Ceiling: 5600 feet AGL
Clouds: few clouds at 1800 feet AGL
broken clouds at 5600 feet AGL
Weather: no significant weather observed at this time

METAR text: LEPA 180300Z 07007KT 9999 FEW018 SCT056 10/10 Q1017 TEMPO SHRA FEW020CB
Conditions at: LEPA (PALMA DE MALLORC, ES) observed 0300 UTC 18 January 2019
Temperature: 10.0°C (50°F)
Dewpoint: 10.0°C (50°F) [RH = 100%]
Pressure (altimeter): 30.03 inches Hg (1017.0 mb)
Winds: from the ENE (70 degrees) at 8 MPH (7 knots; 3.6 m/s)
Visibility: 6 or more miles (10+ km)
Ceiling: at least 12,000 feet AGL
Clouds: few clouds at 1800 feet AGL
scattered clouds at 5600 feet AGL
Weather: no significant weather observed at this time

METAR text: LEPA 180230Z 05003KT 9999 FEW018 SCT060 09/09 Q1017 TEMPO SHRA FEW020CB
Conditions at: LEPA (PALMA DE MALLORC, ES) observed 0230 UTC 18 January 2019
Temperature: 9.0°C (48°F)
Dewpoint: 9.0°C (48°F) [RH = 100%]
Pressure (altimeter): 30.03 inches Hg (1017.0 mb)
Winds: from the NE (50 degrees) at 3 MPH (3 knots; 1.5 m/s)
Visibility: 6 or more miles (10+ km)
Ceiling: at least 12,000 feet AGL
Clouds: few clouds at 1800 feet AGL
scattered clouds at 6000 feet AGL
Weather: no significant weather observed at this time

METAR text: LEPA 180200Z 06003KT 040V100 9999 FEW018 SCT060 09/09 Q1017 TEMPO SHRA FEW020CB
Conditions at: LEPA (PALMA DE MALLORC, ES) observed 0200 UTC 18 January 2019
Temperature: 9.0°C (48°F)
Dewpoint: 9.0°C (48°F) [RH = 100%]
Pressure (altimeter): 30.03 inches Hg (1017.0 mb)
Winds: from the ENE (60 degrees) at 3 MPH (3 knots; 1.5 m/s)
Visibility: 6 or more miles (10+ km)
Ceiling: at least 12,000 feet AGL
Clouds: few clouds at 1800 feet AGL
scattered clouds at 6000 feet AGL
Weather: no significant weather observed at this time

METAR text: LEPA 180130Z 09003KT 9999 SCT020 SCT060 09/09 Q1017 NOSIG
Conditions at: LEPA (PALMA DE MALLORC, ES) observed 0130 UTC 18 January 2019
Temperature: 9.0°C (48°F)
Dewpoint: 9.0°C (48°F) [RH = 100%]
Pressure (altimeter): 30.03 inches Hg (1017.0 mb)
Winds: from the E (90 degrees) at 3 MPH (3 knots; 1.5 m/s)
Visibility: 6 or more miles (10+ km)
Ceiling: at least 12,000 feet AGL
Clouds: scattered clouds at 2000 feet AGL
scattered clouds at 6000 feet AGL
Weather: no significant weather observed at this time

Forecast for: LEPA (PALMA DE MALLORC, ES)
Text: TAF LEPA 191100Z 1912/2012 31008KT 9999 FEW025 TX15/1912Z TN05/2006Z
Forecast period: 1200 to 1800 UTC 19 January 2019
Forecast type: FROM: standard forecast or significant change
Winds: from the NW (310 degrees) at 9 MPH (8 knots; 4.1 m/s)
Visibility: 6 or more miles 10+ km)
Ceiling: at least 12,000 feet AGL
Clouds: few clouds at 2500 feet AGL
Weather: no significant weather forecast for this period
Text: BECMG 1918/1920 VRB03KT
Forecast period: 1800 UTC 19 January 2019 to 1200 UTC 20 January 2019
Forecast type: BECOMING: Conditions expected to become as follows by 2000 UTC 19 January 2019
Winds: variable direction winds at 3 MPH (3 knots; 1.5 m/s)
Visibility: 6 or more miles 10+ km)
Ceiling: at least 12,000 feet AGL
Clouds: few clouds at 2500 feet AGL
Weather: no significant weather forecast for this period
Text: TEMPO 2004/2012 4000 RA BKN020 OVC040
Forecast period: 0400 to 1200 UTC 20 January 2019
Forecast type: TEMPORARY: The following changes expected for less than half the time period
Visibility: 2.49 miles (4.01 km)
Ceiling: 2000 feet AGL
Clouds: broken clouds at 2000 feet AGL
overcast cloud deck at 4000 feet AGL
Weather: RA  (moderate rain)
Text: PROB30
Forecast period: 0600 to 1200 UTC 20 January 2019
Forecast type: TEMPORARY: The following changes expected for less than half the time period
Visibility: 2.49 miles (4.01 km)
Ceiling: 4000 feet AGL
Clouds: few clouds at 3000 feet AGL
broken clouds at 4000 feet AGL
Weather: TSRA  (rain associated with thunderstorm(s))